createdAt,value
2018-12-15T00:00:04.045Z,82.78
2018-12-15T00:01:04.009Z,85.42
2018-12-15T00:02:03.975Z,84.48
2018-12-15T00:03:03.955Z,82.78
2018-12-15T00:04:03.904Z,81.55
2018-12-15T00:05:03.871Z,80.79
2018-12-15T00:06:03.835Z,80.98
2018-12-15T00:07:03.805Z,81.17
2018-12-15T00:08:03.766Z,80.60
2018-12-15T00:09:03.731Z,79.56
2018-12-15T00:10:03.698Z,79.28
2018-12-15T00:11:03.663Z,80.41
2018-12-15T00:12:03.627Z,81.07
2018-12-15T00:13:03.593Z,81.45
2018-12-15T00:14:03.561Z,82.97
2018-12-15T00:15:03.530Z,82.40
2018-12-15T00:16:03.488Z,81.07
2018-12-15T00:17:05.778Z,79.75
2018-12-15T00:18:03.571Z,85.42
2018-12-15T00:19:03.392Z,84.29
2018-12-15T00:20:03.355Z,84.20
2018-12-15T00:21:03.317Z,83.25
2018-12-15T00:22:03.284Z,83.44
2018-12-15T00:23:03.250Z,81.83
2018-12-15T00:24:03.513Z,81.36
2018-12-15T00:25:03.177Z,80.79
2018-12-15T00:26:03.144Z,81.26
2018-12-15T00:27:03.109Z,82.12
2018-12-15T00:28:03.075Z,80.98
2018-12-15T00:29:03.040Z,79.56
2018-12-15T00:30:03.005Z,80.04
2018-12-15T00:31:02.971Z,80.60
2018-12-15T00:32:02.937Z,79.75
2018-12-15T00:33:02.901Z,81.26
2018-12-15T00:34:03.016Z,80.32
2018-12-15T00:35:02.831Z,79.28
2018-12-15T00:36:02.804Z,80.13
2018-12-15T00:37:02.763Z,80.69
2018-12-15T00:38:02.728Z,81.17
2018-12-15T00:39:02.694Z,81.07
2018-12-15T00:40:02.659Z,80.79
2018-12-15T00:41:02.624Z,81.83
2018-12-15T00:42:02.591Z,81.07
2018-12-15T00:43:02.563Z,81.93
2018-12-15T00:44:02.520Z,82.97
2018-12-15T00:45:02.486Z,84.48
2018-12-15T00:46:02.450Z,84.29
2018-12-15T00:47:02.415Z,83.63
2018-12-15T00:48:02.380Z,85.42
2018-12-15T00:49:02.347Z,85.61
2018-12-15T00:50:02.312Z,84.67
2018-12-15T00:51:02.279Z,84.01
2018-12-15T00:52:02.394Z,83.44
2018-12-15T00:53:02.208Z,85.24
2018-12-15T00:54:02.185Z,86.66
2018-12-15T00:55:02.145Z,86.18
2018-12-15T00:56:02.103Z,85.71
2018-12-15T00:57:02.070Z,85.42
2018-12-15T00:58:02.339Z,86.28
2018-12-15T00:59:02.004Z,86.37
2018-12-15T01:00:02.003Z,86.56
2018-12-15T01:01:01.934Z,86.66
2018-12-15T01:02:01.897Z,87.32
2018-12-15T01:03:01.862Z,86.18
2018-12-15T01:04:01.830Z,84.67
2018-12-15T01:05:01.793Z,84.10
2018-12-15T01:06:01.757Z,84.29
2018-12-15T01:07:01.723Z,84.77
2018-12-15T01:08:01.691Z,84.29
2018-12-15T01:09:01.656Z,82.87
2018-12-15T01:10:01.770Z,85.71
2018-12-15T01:11:01.588Z,87.60
2018-12-15T01:12:01.550Z,87.70
2018-12-15T01:13:01.524Z,87.04
2018-12-15T01:14:01.483Z,85.90
2018-12-15T01:15:01.448Z,86.18
2018-12-15T01:16:01.420Z,86.75
2018-12-15T01:17:01.376Z,84.77
2018-12-15T01:18:01.346Z,85.90
2018-12-15T01:19:01.308Z,86.94
2018-12-15T01:20:01.295Z,86.09
2018-12-15T01:21:01.241Z,83.82
2018-12-15T01:22:01.204Z,83.72
2018-12-15T01:23:01.171Z,84.29
2018-12-15T01:24:01.136Z,83.63
2018-12-15T01:25:01.100Z,83.91
2018-12-15T01:26:01.075Z,85.52
2018-12-15T01:27:01.031Z,86.56
2018-12-15T01:28:01.349Z,85.42
2018-12-15T01:29:00.963Z,85.99
2018-12-15T01:30:00.929Z,86.37
2018-12-15T01:31:00.894Z,86.66
2018-12-15T01:32:00.858Z,86.18
2018-12-15T01:33:00.823Z,85.90
2018-12-15T01:34:00.943Z,84.95
2018-12-15T01:35:00.759Z,85.71
2018-12-15T01:36:00.719Z,84.39
2018-12-15T01:37:00.686Z,86.18
2018-12-15T01:38:00.651Z,86.37
2018-12-15T01:39:00.919Z,84.77
2018-12-15T01:40:00.582Z,84.95
2018-12-15T01:41:00.548Z,85.99
2018-12-15T01:42:00.513Z,87.88
2018-12-15T01:43:00.477Z,86.94
2018-12-15T01:44:00.447Z,87.88
2018-12-15T01:45:00.412Z,86.18
2018-12-15T01:46:00.395Z,86.47
2018-12-15T01:47:00.343Z,88.55
2018-12-15T01:48:00.305Z,88.55
2018-12-15T01:49:00.277Z,87.70
2018-12-15T01:50:00.235Z,86.18
2018-12-15T01:51:00.352Z,85.80
2018-12-15T01:52:00.166Z,86.37
2018-12-15T01:53:00.130Z,85.14
2018-12-15T01:54:00.103Z,86.75
2018-12-15T01:55:00.063Z,85.80
2018-12-15T01:56:00.027Z,84.95
2018-12-15T01:56:59.994Z,83.82
2018-12-15T01:57:59.967Z,83.91
2018-12-15T01:58:59.926Z,82.97
2018-12-15T01:59:59.889Z,84.39
2018-12-15T02:00:59.864Z,83.91
2018-12-15T02:01:59.970Z,84.77
2018-12-15T02:02:59.787Z,87.04
2018-12-15T02:03:59.756Z,87.32
2018-12-15T02:04:59.716Z,86.66
2018-12-15T02:05:59.683Z,86.28
2018-12-15T02:06:59.648Z,85.05
2018-12-15T02:07:59.615Z,84.86
2018-12-15T02:08:59.585Z,84.39
2018-12-15T02:09:59.543Z,83.44
2018-12-15T02:10:59.508Z,82.87
2018-12-15T02:11:59.476Z,85.14
2018-12-15T02:12:59.439Z,84.01
2018-12-15T02:13:59.405Z,82.78
2018-12-15T02:14:59.370Z,81.36
2018-12-15T02:15:59.347Z,82.40
2018-12-15T02:16:59.303Z,82.50
2018-12-15T02:17:59.266Z,83.15
2018-12-15T02:18:59.230Z,82.02
2018-12-15T02:19:59.496Z,81.64
2018-12-15T02:20:59.161Z,81.55
2018-12-15T02:21:59.126Z,80.51
2018-12-15T02:22:59.092Z,82.21
2018-12-15T02:23:59.057Z,81.36
2018-12-15T02:24:59.022Z,82.31
2018-12-15T02:25:59.238Z,82.97
2018-12-15T02:26:58.953Z,83.15
2018-12-15T02:27:58.917Z,87.70
2018-12-15T02:28:58.886Z,87.60
2018-12-15T02:29:58.848Z,85.99
2018-12-15T02:30:58.816Z,85.33
2018-12-15T02:31:58.780Z,87.13
2018-12-15T02:32:58.744Z,88.36
2018-12-15T02:33:58.710Z,86.56
2018-12-15T02:34:58.683Z,85.61
2018-12-15T02:35:58.643Z,85.05
2018-12-15T02:36:58.607Z,85.24
2018-12-15T02:37:58.570Z,86.28
2018-12-15T02:38:58.538Z,84.86
2018-12-15T02:39:58.506Z,84.39
2018-12-15T02:40:58.466Z,85.61
2018-12-15T02:41:58.433Z,86.18
2018-12-15T02:42:58.406Z,87.04
2018-12-15T02:43:58.365Z,87.88
2018-12-15T02:44:58.333Z,86.94
2018-12-15T02:45:58.293Z,85.33
2018-12-15T02:46:58.261Z,85.99
2018-12-15T02:47:58.236Z,87.04
2018-12-15T02:48:58.338Z,87.60
2018-12-15T02:49:58.157Z,87.79
2018-12-15T02:50:58.126Z,88.07
2018-12-15T02:51:58.084Z,87.04
2018-12-15T02:52:58.051Z,86.18
2018-12-15T02:53:58.017Z,85.24
2018-12-15T02:54:57.980Z,85.61
2018-12-15T02:55:58.706Z,85.05
2018-12-15T02:56:57.913Z,85.14
2018-12-15T02:57:57.880Z,85.24
2018-12-15T02:58:57.843Z,84.86
2018-12-15T02:59:57.815Z,82.87
2018-12-15T03:00:58.073Z,83.44
2018-12-15T03:01:57.741Z,83.72
2018-12-15T03:02:57.704Z,83.06
2018-12-15T03:03:57.669Z,80.69
2018-12-15T03:04:57.636Z,79.75
2018-12-15T03:05:57.599Z,80.13
2018-12-15T03:06:57.566Z,80.69
2018-12-15T03:07:57.530Z,80.69
2018-12-15T03:08:57.495Z,80.32
2018-12-15T03:09:57.462Z,80.13
2018-12-15T03:10:57.428Z,80.32
2018-12-15T03:11:57.390Z,80.69
2018-12-15T03:12:57.366Z,81.17
2018-12-15T03:13:57.322Z,80.51
2018-12-15T03:14:57.289Z,79.75
2018-12-15T03:15:57.254Z,79.09
2018-12-15T03:16:57.217Z,78.42
2018-12-15T03:17:57.185Z,77.76
2018-12-15T03:18:57.304Z,77.20
2018-12-15T03:19:57.113Z,76.06
2018-12-15T03:20:57.081Z,76.63
2018-12-15T03:21:57.046Z,76.06
2018-12-15T03:22:57.014Z,74.64
2018-12-15T03:23:56.975Z,75.40
2018-12-15T03:24:56.942Z,76.72
2018-12-15T03:25:56.908Z,77.29
2018-12-15T03:26:56.877Z,76.53
2018-12-15T03:27:56.842Z,75.96
2018-12-15T03:28:56.810Z,75.68
2018-12-15T03:29:56.766Z,75.87
2018-12-15T03:30:56.758Z,74.83
2018-12-15T03:31:56.714Z,75.12
2018-12-15T03:32:56.670Z,75.21
2018-12-15T03:33:56.632Z,76.06
2018-12-15T03:34:56.603Z,74.45
2018-12-15T03:35:56.708Z,74.07
2018-12-15T03:36:56.529Z,73.41
2018-12-15T03:37:56.494Z,73.88
2018-12-15T03:38:56.459Z,74.36
2018-12-15T03:39:56.421Z,74.36
2018-12-15T03:40:56.385Z,73.88
2018-12-15T03:41:56.351Z,73.03
2018-12-15T03:42:56.316Z,71.61
2018-12-15T03:43:56.291Z,72.09
2018-12-15T03:44:56.248Z,71.99
2018-12-15T03:45:56.213Z,70.57
2018-12-15T03:46:56.182Z,70.76
2018-12-15T03:47:56.519Z,71.04
2018-12-15T03:48:56.112Z,71.99
2018-12-15T03:49:56.076Z,70.67
2018-12-15T03:50:56.041Z,70.39
2018-12-15T03:51:56.009Z,70.48
2018-12-15T03:52:55.980Z,70.29
2018-12-15T03:53:56.243Z,69.44
2018-12-15T03:54:55.902Z,68.96
2018-12-15T03:55:55.867Z,68.21
2018-12-15T03:56:55.831Z,67.74
2018-12-15T03:57:55.801Z,67.36
2018-12-15T03:58:55.764Z,66.13
2018-12-15T03:59:55.979Z,65.37
2018-12-15T04:00:55.694Z,65.56
2018-12-15T04:01:55.663Z,66.03
2018-12-15T04:02:55.630Z,65.66
2018-12-15T04:03:55.590Z,65.56
2018-12-15T04:04:55.554Z,65.28
2018-12-15T04:05:55.521Z,64.23
2018-12-15T04:06:55.485Z,63.85
2018-12-15T04:07:55.451Z,63.39
2018-12-15T04:08:55.735Z,63.10
2018-12-15T04:09:55.399Z,62.44
2018-12-15T04:10:55.350Z,63.01
2018-12-15T04:11:55.315Z,61.68
2018-12-15T04:12:55.284Z,61.96
2018-12-15T04:13:55.242Z,61.49
2018-12-15T04:14:55.217Z,61.40
2018-12-15T04:15:55.174Z,61.49
2018-12-15T04:16:55.140Z,61.77
2018-12-15T04:17:55.104Z,60.45
2018-12-15T04:18:55.070Z,59.88
2018-12-15T04:19:55.035Z,59.88
2018-12-15T04:20:55.013Z,59.12
2018-12-15T04:21:54.965Z,59.41
2018-12-15T04:22:54.942Z,58.65
2018-12-15T04:23:54.909Z,57.71
2018-12-15T04:24:54.865Z,58.28
2018-12-15T04:25:54.828Z,58.84
2018-12-15T04:26:54.793Z,58.84
2018-12-15T04:27:54.912Z,57.99
2018-12-15T04:28:54.725Z,57.71
2018-12-15T04:29:54.688Z,56.76
2018-12-15T04:30:54.667Z,56.10
2018-12-15T04:31:54.627Z,54.96
2018-12-15T04:32:54.599Z,54.39
2018-12-15T04:33:54.700Z,54.58
2018-12-15T04:34:54.527Z,54.21
2018-12-15T04:35:54.479Z,52.69
2018-12-15T04:36:54.449Z,53.36
2018-12-15T04:37:54.410Z,53.64
2018-12-15T04:38:54.395Z,52.98
2018-12-15T04:39:54.340Z,53.26
2018-12-15T04:40:54.316Z,54.39
2018-12-15T04:41:54.286Z,53.74
2018-12-15T04:42:54.236Z,52.69
2018-12-15T04:43:54.201Z,51.84
2018-12-15T04:44:54.166Z,51.84
2018-12-15T04:45:54.435Z,54.30
2018-12-15T04:46:54.097Z,53.45
2018-12-15T04:47:54.060Z,52.22
2018-12-15T04:48:54.230Z,51.09
2018-12-15T04:49:53.992Z,50.52
2018-12-15T04:50:53.959Z,50.52
2018-12-15T04:51:53.926Z,50.33
2018-12-15T04:52:53.887Z,50.61
2018-12-15T04:53:53.855Z,49.85
2018-12-15T04:54:53.829Z,49.19
2018-12-15T04:55:53.785Z,48.91
2018-12-15T04:56:53.750Z,49.66
2018-12-15T04:57:53.720Z,48.44
2018-12-15T04:58:53.701Z,47.20
2018-12-15T04:59:53.664Z,46.92
2018-12-15T05:00:53.613Z,47.30
2018-12-15T05:01:53.575Z,47.58
2018-12-15T05:02:53.542Z,47.20
2018-12-15T05:03:53.506Z,47.20
2018-12-15T05:04:53.470Z,48.15
2018-12-15T05:05:53.439Z,49.29
2018-12-15T05:06:53.408Z,49.29
2018-12-15T05:07:53.366Z,49.29
2018-12-15T05:08:53.483Z,49.76
2018-12-15T05:09:53.297Z,49.29
2018-12-15T05:10:53.266Z,48.15
2018-12-15T05:11:53.431Z,48.44
2018-12-15T05:12:53.227Z,48.34
2018-12-15T05:13:53.161Z,48.44
2018-12-15T05:14:53.431Z,49.38
2018-12-15T05:15:53.092Z,49.76
2018-12-15T05:16:53.055Z,49.76
2018-12-15T05:17:53.020Z,49.57
2018-12-15T05:18:52.986Z,49.29
2018-12-15T05:19:52.963Z,48.06
2018-12-15T05:20:53.085Z,47.30
2018-12-15T05:21:52.882Z,47.30
2018-12-15T05:22:52.851Z,47.87
2018-12-15T05:23:52.812Z,48.06
2018-12-15T05:24:52.778Z,47.02
2018-12-15T05:25:52.944Z,46.73
2018-12-15T05:26:52.710Z,47.49
2018-12-15T05:27:52.674Z,47.87
2018-12-15T05:28:52.638Z,47.11
2018-12-15T05:29:52.605Z,46.83
2018-12-15T05:30:52.587Z,46.26
2018-12-15T05:31:52.533Z,46.73
2018-12-15T05:32:52.512Z,46.64
2018-12-15T05:33:52.468Z,46.45
2018-12-15T05:34:52.431Z,47.20
2018-12-15T05:35:52.409Z,46.64
2018-12-15T05:36:52.361Z,46.26
2018-12-15T05:37:52.327Z,44.93
2018-12-15T05:38:52.292Z,44.65
2018-12-15T05:39:52.258Z,44.27
2018-12-15T05:40:52.228Z,45.41
2018-12-15T05:41:52.187Z,45.60
2018-12-15T05:42:52.154Z,45.79
2018-12-15T05:43:52.122Z,45.69
2018-12-15T05:44:52.233Z,45.31
2018-12-15T05:45:52.049Z,45.22
2018-12-15T05:46:52.029Z,44.46
2018-12-15T05:47:51.979Z,45.03
2018-12-15T05:48:51.952Z,45.41
2018-12-15T05:49:51.910Z,44.56
2018-12-15T05:50:51.879Z,43.33
2018-12-15T05:51:51.844Z,42.19
2018-12-15T05:52:51.807Z,42.19
2018-12-15T05:53:51.771Z,42.10
2018-12-15T05:54:51.742Z,42.10
2018-12-15T05:55:51.702Z,43.04
2018-12-15T05:56:51.666Z,41.91
2018-12-15T05:57:51.646Z,40.39
2018-12-15T05:59:51.765Z,40.49
2018-12-15T06:00:52.151Z,41.44
2018-12-15T06:01:51.494Z,41.44
2018-12-15T06:02:51.459Z,40.96
2018-12-15T06:03:51.424Z,40.49
2018-12-15T06:04:51.707Z,40.68
2018-12-15T06:05:51.354Z,40.49
2018-12-15T06:06:51.825Z,39.83
2018-12-15T06:07:51.295Z,39.73
2018-12-15T06:08:51.264Z,39.07
2018-12-15T06:09:51.214Z,38.69
2018-12-15T06:10:51.197Z,37.18
2018-12-15T06:11:51.159Z,37.08
2018-12-15T06:12:51.260Z,36.52
2018-12-15T06:13:51.076Z,36.71
2018-12-15T06:14:51.042Z,35.00
2018-12-15T06:15:51.017Z,35.28
2018-12-15T06:16:50.973Z,35.47
2018-12-15T06:17:50.948Z,35.85
2018-12-15T06:18:50.917Z,35.85
2018-12-15T06:19:50.867Z,36.14
2018-12-15T06:20:50.833Z,35.47
2018-12-15T06:21:50.816Z,34.91
2018-12-15T06:22:50.773Z,34.44
2018-12-15T06:23:50.770Z,34.44
2018-12-15T06:24:50.697Z,34.15
2018-12-15T06:25:50.659Z,34.06
2018-12-15T06:26:50.624Z,33.87
2018-12-15T06:27:50.591Z,33.96
2018-12-15T06:28:50.555Z,33.20
2018-12-15T06:29:50.519Z,33.58
2018-12-15T06:30:50.497Z,33.87
2018-12-15T06:31:50.450Z,33.39
2018-12-15T06:32:50.415Z,33.58
2018-12-15T06:33:50.380Z,33.77
2018-12-15T06:34:50.353Z,32.64
2018-12-15T06:35:50.325Z,31.98
2018-12-15T06:36:50.428Z,31.98
2018-12-15T06:37:50.303Z,32.07
2018-12-15T06:38:50.213Z,32.92
2018-12-15T06:39:50.183Z,31.98
2018-12-15T06:40:50.137Z,32.82
2018-12-15T06:41:50.108Z,32.64
2018-12-15T06:42:50.370Z,31.60
2018-12-15T06:43:50.033Z,30.84
2018-12-15T06:44:50.009Z,30.74
2018-12-15T06:45:49.962Z,30.93
2018-12-15T06:46:49.930Z,30.84
2018-12-15T06:47:49.893Z,31.79
2018-12-15T06:48:50.008Z,31.60
2018-12-15T06:49:49.826Z,31.03
2018-12-15T06:51:49.755Z,30.93
2018-12-15T06:52:49.720Z,30.55
2018-12-15T06:53:49.685Z,29.71
2018-12-15T06:54:49.657Z,29.23
2018-12-15T06:55:49.625Z,29.80
2018-12-15T06:56:49.579Z,29.33
2018-12-15T06:57:49.549Z,28.57
2018-12-15T06:58:49.511Z,28.38
2018-12-15T06:59:49.475Z,27.72
2018-12-15T07:00:49.441Z,27.06
2018-12-15T07:01:49.622Z,26.87
2018-12-15T07:02:49.370Z,27.15
2018-12-15T07:03:49.336Z,27.06
2018-12-15T07:05:49.277Z,27.06
2018-12-15T07:06:49.237Z,27.34
2018-12-15T07:07:49.197Z,27.06
2018-12-15T07:08:49.160Z,27.06
2018-12-15T07:09:49.127Z,27.06
2018-12-15T07:10:49.097Z,26.20
2018-12-15T07:11:49.218Z,25.63
2018-12-15T07:12:49.021Z,25.26
2018-12-15T07:13:49.190Z,24.98
2018-12-15T07:14:48.957Z,24.98
2018-12-15T07:15:48.917Z,26.11
2018-12-15T07:16:48.883Z,25.82
2018-12-15T07:17:49.154Z,24.79
2018-12-15T07:18:50.031Z,23.65
2018-12-15T07:19:48.794Z,23.84
2018-12-15T07:20:48.776Z,23.65
2018-12-15T07:21:48.723Z,23.93
2018-12-15T07:22:48.677Z,24.03
2018-12-15T07:23:48.938Z,23.74
2018-12-15T07:24:48.606Z,25.16
2018-12-15T07:25:48.582Z,24.50
2018-12-15T07:26:48.548Z,24.22
2018-12-15T07:27:48.504Z,23.74
2018-12-15T07:28:48.470Z,23.46
2018-12-15T07:29:48.431Z,23.36
2018-12-15T07:30:48.401Z,23.74
2018-12-15T07:31:48.362Z,24.03
2018-12-15T07:32:48.336Z,23.93
2018-12-15T07:33:48.308Z,24.22
2018-12-15T07:34:48.258Z,24.60
2018-12-15T07:35:48.222Z,24.50
2018-12-15T07:36:48.193Z,24.69
2018-12-15T07:37:48.153Z,24.69
2018-12-15T07:38:48.118Z,24.88
2018-12-15T07:39:48.100Z,24.03
2018-12-15T07:40:48.049Z,24.79
2018-12-15T07:41:48.013Z,24.41
2018-12-15T07:42:47.980Z,24.41
2018-12-15T07:43:47.944Z,24.03
2018-12-15T07:44:47.909Z,23.84
2018-12-15T07:45:47.875Z,23.65
2018-12-15T07:46:47.841Z,23.74
2018-12-15T07:47:47.809Z,24.03
2018-12-15T07:48:51.320Z,23.93
2018-12-15T07:49:47.736Z,24.31
2018-12-15T07:50:47.701Z,24.50
2018-12-15T07:51:47.679Z,24.41
2018-12-15T07:52:47.633Z,25.63
2018-12-15T07:53:47.597Z,25.82
2018-12-15T07:54:47.613Z,26.30
2018-12-15T07:55:47.530Z,26.11
2018-12-15T07:56:47.493Z,26.30
2018-12-15T07:57:47.457Z,25.92
2018-12-15T07:58:47.424Z,25.16
2018-12-15T07:59:47.388Z,24.88
2018-12-15T08:00:47.365Z,24.79
2018-12-15T08:01:47.320Z,26.30
2018-12-15T08:02:47.288Z,27.06
2018-12-15T08:03:47.249Z,26.87
2018-12-15T08:04:47.216Z,26.39
2018-12-15T08:05:47.180Z,26.96
2018-12-15T08:06:47.157Z,27.72
2018-12-15T08:07:47.113Z,28.76
2018-12-15T08:08:47.077Z,28.28
2018-12-15T08:09:47.042Z,27.34
2018-12-15T08:10:47.008Z,27.25
2018-12-15T08:11:47.026Z,26.68
2018-12-15T08:12:46.953Z,26.11
2018-12-15T08:13:46.907Z,27.06
2018-12-15T08:14:46.868Z,28.19
2018-12-15T08:15:47.352Z,28.28
2018-12-15T08:16:46.797Z,28.47
2018-12-15T08:17:46.763Z,29.42
2018-12-15T08:18:46.731Z,29.42
2018-12-15T08:19:46.720Z,29.23
2018-12-15T08:20:46.868Z,29.52
2018-12-15T08:21:46.625Z,28.38
2018-12-15T08:22:46.794Z,29.14
2018-12-15T08:23:46.572Z,29.23
2018-12-15T08:24:46.721Z,28.66
2018-12-15T08:25:46.496Z,28.09
2018-12-15T08:26:46.451Z,27.72
2018-12-15T08:27:46.432Z,29.33
2018-12-15T08:28:46.392Z,29.90
2018-12-15T08:29:46.346Z,28.38
2018-12-15T08:30:46.312Z,27.91
2018-12-15T08:31:46.277Z,28.95
2018-12-15T08:32:46.255Z,29.23
2018-12-15T08:33:46.217Z,30.27
2018-12-15T08:34:46.492Z,31.50
2018-12-15T08:35:46.149Z,32.17
2018-12-15T08:36:46.422Z,31.31
2018-12-15T08:37:46.070Z,30.55
2018-12-15T08:38:46.045Z,31.60
2018-12-15T08:39:46.018Z,32.64
2018-12-15T08:40:45.992Z,31.98
2018-12-15T08:41:45.932Z,32.35
2018-12-15T08:42:45.910Z,32.92
2018-12-15T08:43:45.861Z,32.54
2018-12-15T08:44:45.827Z,32.17
2018-12-15T08:45:45.793Z,31.98
2018-12-15T08:46:45.960Z,32.92
2018-12-15T08:47:46.026Z,33.30
2018-12-15T08:48:45.692Z,33.39
2018-12-15T08:49:45.657Z,33.58
2018-12-15T08:50:45.619Z,33.87
2018-12-15T08:51:45.585Z,33.87
2018-12-15T08:52:45.552Z,33.49
2018-12-15T08:53:45.514Z,33.68
2018-12-15T08:54:45.484Z,34.34
2018-12-15T08:55:45.445Z,34.25
2018-12-15T08:56:45.423Z,35.28
2018-12-15T08:57:45.389Z,34.91
2018-12-15T08:58:45.343Z,35.19
2018-12-15T08:59:45.307Z,36.80
2018-12-15T09:00:45.273Z,37.55
2018-12-15T09:01:45.249Z,37.55
2018-12-15T09:02:45.204Z,38.31
2018-12-15T09:03:45.488Z,38.88
2018-12-15T09:04:45.349Z,39.17
2018-12-15T09:05:45.553Z,39.45
2018-12-15T09:06:45.067Z,39.83
2018-12-15T09:07:45.030Z,40.30
2018-12-15T09:08:44.996Z,40.96
2018-12-15T09:09:45.280Z,40.87
2018-12-15T09:10:44.927Z,40.96
2018-12-15T09:11:45.055Z,40.87
2018-12-15T09:12:44.859Z,41.06
2018-12-15T09:13:44.828Z,40.87
2018-12-15T09:14:44.792Z,40.96
2018-12-15T09:15:44.755Z,40.49
2018-12-15T09:16:44.723Z,42.10
2018-12-15T09:17:44.696Z,42.47
2018-12-15T09:18:44.653Z,43.33
2018-12-15T09:19:44.820Z,42.19
2018-12-15T09:20:44.583Z,43.23
2018-12-15T09:21:44.548Z,43.14
2018-12-15T09:22:44.515Z,43.80
2018-12-15T09:23:44.831Z,43.42
2018-12-15T09:24:44.444Z,43.42
2018-12-15T09:25:44.411Z,43.80
2018-12-15T09:26:44.376Z,43.90
2018-12-15T09:27:44.363Z,43.52
2018-12-15T09:28:44.309Z,46.07
2018-12-15T09:29:44.423Z,46.45
2018-12-15T09:30:44.247Z,47.20
2018-12-15T09:31:44.204Z,47.02
2018-12-15T09:32:44.184Z,48.15
2018-12-15T09:33:44.150Z,47.20
2018-12-15T09:34:44.113Z,46.73
2018-12-15T09:35:44.066Z,47.11
2018-12-15T09:36:44.033Z,47.20
2018-12-15T09:37:43.997Z,46.26
2018-12-15T09:38:43.974Z,46.83
2018-12-15T09:39:43.929Z,49.01
2018-12-15T09:40:43.901Z,50.61
2018-12-15T09:41:43.875Z,49.38
2018-12-15T09:42:43.829Z,50.23
2018-12-15T09:43:43.804Z,48.82
2018-12-15T09:44:44.075Z,49.76
2018-12-15T09:45:43.741Z,50.33
2018-12-15T09:46:43.689Z,49.19
2018-12-15T09:47:43.817Z,49.76
2018-12-15T09:48:43.636Z,51.46
2018-12-15T09:49:43.598Z,51.84
2018-12-15T09:50:43.552Z,50.52
2018-12-15T09:51:43.527Z,49.76
2018-12-15T09:52:43.484Z,49.48
2018-12-15T09:53:43.465Z,50.80
2018-12-15T09:54:43.470Z,51.09
2018-12-15T09:55:43.451Z,52.12
2018-12-15T09:57:43.313Z,54.11
2018-12-15T09:58:43.599Z,55.06
2018-12-15T09:59:43.496Z,56.01
2018-12-15T10:00:43.223Z,56.10
2018-12-15T10:01:43.192Z,57.23
2018-12-15T10:02:43.144Z,58.28
2018-12-15T10:03:43.118Z,58.75
2018-12-15T10:04:43.085Z,59.50
2018-12-15T10:05:43.053Z,59.60
2018-12-15T10:06:43.022Z,60.17
2018-12-15T10:07:42.984Z,60.83
2018-12-15T10:08:43.257Z,61.49
2018-12-15T10:09:42.917Z,60.07
2018-12-15T10:10:42.886Z,61.87
2018-12-15T10:11:42.998Z,63.48
2018-12-15T10:12:42.822Z,65.47
2018-12-15T10:13:42.769Z,67.07
2018-12-15T10:14:42.752Z,68.49
2018-12-15T10:15:42.708Z,69.53
2018-12-15T10:16:42.671Z,71.61
2018-12-15T10:17:42.634Z,73.41
2018-12-15T10:18:42.600Z,72.75
2018-12-15T10:19:42.567Z,72.47
2018-12-15T10:20:42.533Z,71.42
2018-12-15T10:21:42.499Z,72.47
2018-12-15T10:22:42.466Z,73.22
2018-12-15T10:23:42.436Z,74.07
2018-12-15T10:24:42.399Z,74.93
2018-12-15T10:25:42.367Z,74.17
2018-12-15T10:26:42.332Z,75.24
2018-12-15T10:27:42.296Z,74.17
2018-12-15T10:28:42.463Z,73.07
2018-12-15T10:29:42.233Z,73.07
2018-12-15T10:30:42.205Z,74.02
2018-12-15T10:31:42.173Z,76.25
2018-12-15T10:32:42.128Z,74.40
2018-12-15T10:33:42.104Z,75.15
2018-12-15T10:34:42.071Z,76.19
2018-12-15T10:35:42.279Z,76.10
2018-12-15T10:36:42.002Z,73.92
2018-12-15T10:37:41.972Z,74.30
2018-12-15T10:38:41.935Z,72.78
2018-12-15T10:39:41.890Z,73.26
2018-12-15T10:40:41.860Z,75.34
2018-12-15T10:41:41.823Z,75.53
2018-12-15T10:42:41.794Z,75.72
2018-12-15T10:43:41.758Z,77.80
2018-12-15T10:44:41.737Z,78.18
2018-12-15T10:45:41.700Z,76.67
2018-12-15T10:46:41.956Z,77.89
2018-12-15T10:47:41.625Z,80.64
2018-12-15T10:48:41.590Z,81.02
2018-12-15T10:50:41.521Z,83.10
2018-12-15T10:51:41.488Z,81.30
2018-12-15T10:52:41.454Z,81.83
2018-12-15T10:53:41.423Z,79.66
2018-12-15T10:54:41.388Z,80.32
2018-12-15T10:55:41.366Z,82.87
2018-12-15T10:56:41.841Z,84.77
2018-12-15T10:57:41.287Z,83.53
2018-12-15T10:58:41.264Z,83.34
2018-12-15T10:59:41.219Z,82.68
2018-12-15T11:00:41.391Z,83.91
2018-12-15T11:01:41.151Z,82.78
2018-12-15T11:02:41.121Z,81.45
2018-12-15T11:03:41.099Z,81.21
2018-12-15T11:04:41.053Z,82.31
2018-12-15T11:05:41.336Z,81.83
2018-12-15T11:06:41.305Z,81.93
2018-12-15T11:07:41.272Z,82.50
2018-12-15T11:08:41.120Z,83.25
2018-12-15T11:09:40.885Z,83.10
2018-12-15T11:10:41.060Z,84.23
2018-12-15T11:11:40.827Z,85.66
2018-12-15T11:12:40.788Z,85.85
2018-12-15T11:13:40.952Z,86.04
2018-12-15T11:14:40.715Z,86.51
2018-12-15T11:15:40.689Z,88.40
2018-12-15T11:16:40.718Z,87.93
2018-12-15T11:17:40.617Z,88.78
2018-12-15T11:18:40.904Z,88.59
2018-12-15T11:19:40.561Z,89.78
2018-12-15T11:20:40.525Z,88.68
2018-12-15T11:21:40.494Z,88.78
2018-12-15T11:22:40.450Z,89.16
2018-12-15T11:23:40.416Z,90.39
2018-12-15T11:24:40.382Z,92.99
2018-12-15T11:25:40.349Z,93.18
2018-12-15T11:26:40.530Z,91.62
2018-12-15T11:27:40.282Z,89.54
2018-12-15T11:28:40.247Z,90.48
2018-12-15T11:29:40.431Z,93.61
2018-12-15T11:30:40.192Z,92.10
2018-12-15T11:31:40.161Z,95.78
2018-12-15T11:32:40.315Z,93.13
2018-12-15T11:33:40.096Z,92.47
2018-12-15T11:34:40.051Z,93.23
2018-12-15T11:35:40.024Z,93.51
2018-12-15T11:36:39.980Z,98.53
2018-12-15T11:37:39.946Z,97.68
2018-12-15T11:38:39.941Z,99.38
2018-12-15T11:39:39.881Z,98.15
2018-12-15T11:40:39.859Z,99.99
2018-12-15T11:41:39.825Z,99.99
2018-12-15T11:42:39.790Z,99.99
2018-12-15T11:43:39.747Z,99.99
2018-12-15T11:44:39.713Z,99.99
2018-12-15T11:45:39.682Z,99.99
2018-12-15T11:46:39.658Z,98.72
2018-12-15T11:47:39.614Z,95.88
2018-12-15T11:48:39.593Z,95.50
2018-12-15T11:49:43.692Z,96.07
2018-12-15T11:50:39.514Z,97.11
2018-12-15T11:51:39.480Z,98.34
2018-12-15T11:52:39.453Z,99.99
2018-12-15T11:53:39.415Z,99.38
2018-12-15T11:54:39.387Z,98.63
2018-12-15T11:55:39.346Z,97.96
2018-12-15T11:56:39.324Z,99.99
2018-12-15T11:57:39.290Z,99.48
2018-12-15T11:58:39.259Z,99.48
2018-12-15T11:59:39.224Z,99.99
2018-12-15T12:00:39.179Z,99.99
2018-12-15T12:01:39.464Z,99.29
2018-12-15T12:02:39.414Z,99.48
2018-12-15T12:03:39.082Z,97.49
2018-12-15T12:05:39.014Z,97.30
2018-12-15T12:06:38.979Z,96.64
2018-12-15T12:07:38.960Z,95.88
2018-12-15T12:08:38.912Z,94.18
2018-12-15T12:09:38.881Z,95.03
2018-12-15T12:10:38.860Z,99.38
2018-12-15T12:11:38.811Z,98.82
2018-12-15T12:12:38.791Z,97.49
2018-12-15T12:13:38.755Z,96.92
2018-12-15T12:14:38.712Z,99.99
2018-12-15T12:15:38.879Z,99.95
2018-12-15T12:16:38.646Z,99.38
2018-12-15T12:17:38.622Z,97.49
2018-12-15T12:18:38.589Z,99.99
2018-12-15T12:19:38.555Z,99.99
2018-12-15T12:21:38.489Z,99.99
2018-12-15T12:23:38.409Z,99.99
2018-12-15T12:25:38.343Z,99.99
2018-12-15T12:26:38.322Z,99.99
2018-12-15T12:27:38.593Z,99.99
2018-12-15T12:28:38.243Z,99.99
2018-12-15T12:29:38.529Z,99.99
2018-12-15T12:30:38.187Z,99.99
2018-12-15T12:31:38.353Z,99.99
2018-12-15T12:32:38.320Z,99.99
2018-12-15T12:33:38.077Z,99.99
2018-12-15T12:34:38.041Z,99.99
2018-12-15T12:35:38.025Z,99.99
2018-12-15T12:36:37.978Z,99.99
2018-12-15T12:37:37.951Z,99.99
2018-12-15T12:38:37.922Z,99.99
2018-12-15T12:39:37.886Z,99.99
2018-12-15T12:40:37.841Z,99.99
2018-12-15T12:41:37.819Z,99.99
2018-12-15T12:42:37.777Z,99.99
2018-12-15T12:43:38.089Z,99.99
2018-12-15T12:44:37.706Z,99.99
2018-12-15T12:45:37.685Z,99.99
2018-12-15T12:46:37.652Z,99.99
2018-12-15T12:47:37.605Z,99.99
2018-12-15T12:48:37.587Z,99.99
2018-12-15T12:49:37.548Z,99.99
2018-12-15T12:50:37.510Z,99.99
2018-12-15T12:51:37.485Z,99.99
2018-12-15T12:52:37.436Z,99.99
2018-12-15T12:53:37.404Z,99.99
2018-12-15T12:54:37.385Z,99.99
2018-12-15T12:55:37.336Z,99.99
2018-12-15T12:56:37.303Z,99.99
2018-12-15T12:57:37.270Z,99.99
2018-12-15T12:58:37.258Z,99.99
2018-12-15T12:59:37.213Z,99.99
2018-12-15T13:00:37.466Z,99.99